Time,TemperatureF,DewpointF,PressureIn,WindDirection,WindDirectionDegrees,WindSpeedMPH,WindSpeedGustMPH,Humidity,HourlyPrecipIn,Conditions,Clouds,dailyrainin,SoftwareType,DateUTC
2013-04-27 00:07:00,62.1,51.8,30.27,South,178,5.0,6.0,69,0.00,,,0.00,Wunderground v.1.15,2013-04-27 04:07:00,
2013-04-27 00:12:00,62.3,51.6,30.28,South,181,3.0,6.0,68,0.00,,,0.00,Wunderground v.1.15,2013-04-27 04:12:00,
2013-04-27 00:18:00,62.7,51.6,30.29,South,180,4.0,5.0,67,0.00,,,0.00,Wunderground v.1.15,2013-04-27 04:18:00,
2013-04-27 00:23:00,62.9,51.8,30.29,South,179,5.0,5.0,67,0.00,,,0.00,Wunderground v.1.15,2013-04-27 04:23:00,
2013-04-27 00:28:00,62.7,52.0,30.29,South,178,5.0,6.0,68,0.00,,,0.00,Wunderground v.1.15,2013-04-27 04:28:00,
2013-04-27 00:34:00,62.5,52.2,30.30,South,184,3.0,4.0,69,0.00,,,0.00,Wunderground v.1.15,2013-04-27 04:34:00,
2013-04-27 00:40:00,62.3,52.0,30.30,South,184,3.0,4.0,69,0.00,,,0.00,Wunderground v.1.15,2013-04-27 04:40:00,
2013-04-27 00:45:00,62.1,52.2,30.30,South,185,0.0,3.0,70,0.00,,,0.00,Wunderground v.1.15,2013-04-27 04:45:00,
2013-04-27 00:50:00,62.0,52.1,30.30,South,185,0.0,3.0,70,0.00,,,0.00,Wunderground v.1.15,2013-04-27 04:50:00,
2013-04-27 00:55:00,61.9,52.0,30.30,South,184,3.0,3.0,70,0.00,,,0.00,Wunderground v.1.15,2013-04-27 04:55:00,
2013-04-27 01:00:00,62.0,51.3,30.30,South,186,3.0,5.0,68,0.00,,,0.00,Wunderground v.1.15,2013-04-27 05:00:00,
2013-04-27 01:05:00,62.0,51.3,30.30,South,186,3.0,3.0,68,0.00,,,0.00,Wunderground v.1.15,2013-04-27 05:05:00,
2013-04-27 01:11:00,62.0,50.9,30.30,South,186,5.0,5.0,67,0.00,,,0.00,Wunderground v.1.15,2013-04-27 05:11:00,
2013-04-27 01:16:00,62.0,50.5,30.29,South,187,4.0,5.0,66,0.00,,,0.00,Wunderground v.1.15,2013-04-27 05:16:00,
2013-04-27 01:21:00,62.0,49.7,30.29,SSW,195,8.0,8.0,64,0.00,,,0.00,Wunderground v.1.15,2013-04-27 05:21:00,
2013-04-27 01:26:00,62.0,49.3,30.29,South,191,7.0,9.0,63,0.00,,,0.00,Wunderground v.1.15,2013-04-27 05:26:00,
2013-04-27 01:31:00,62.2,49.0,30.29,South,187,4.0,9.0,62,0.00,,,0.00,Wunderground v.1.15,2013-04-27 05:31:00,
2013-04-27 01:37:00,62.2,49.0,30.30,SSW,201,4.0,8.0,62,0.00,,,0.00,Wunderground v.1.15,2013-04-27 05:37:00,
2013-04-27 01:42:00,62.2,49.0,30.29,South,184,2.0,8.0,62,0.00,,,0.00,Wunderground v.1.15,2013-04-27 05:42:00,
2013-04-27 01:47:00,62.1,48.9,30.30,SSW,196,6.0,6.0,62,0.00,,,0.00,Wunderground v.1.15,2013-04-27 05:47:00,
2013-04-27 01:52:00,62.1,48.9,30.29,SSW,194,6.0,6.0,62,0.00,,,0.00,Wunderground v.1.15,2013-04-27 05:52:00,
2013-04-27 01:57:00,62.0,49.3,30.28,South,184,5.0,5.0,63,0.00,,,0.00,Wunderground v.1.15,2013-04-27 05:57:00,
2013-04-27 02:03:00,62.0,48.8,30.27,South,180,3.0,5.0,62,0.00,,,0.00,Wunderground v.1.15,2013-04-27 06:03:00,
2013-04-27 02:08:00,61.9,48.7,30.28,South,173,5.0,8.0,62,0.00,,,0.00,Wunderground v.1.15,2013-04-27 06:08:00,
2013-04-27 02:13:00,62.0,48.8,30.27,South,178,5.0,5.0,62,0.00,,,0.00,Wunderground v.1.15,2013-04-27 06:13:00,
2013-04-27 02:18:00,61.9,48.3,30.28,SSW,206,3.0,6.0,61,0.00,,,0.00,Wunderground v.1.15,2013-04-27 06:18:00,
2013-04-27 02:23:00,61.9,48.3,30.27,South,178,5.0,5.0,61,0.00,,,0.00,Wunderground v.1.15,2013-04-27 06:23:00,
2013-04-27 02:28:00,62.0,48.0,30.27,South,178,4.0,6.0,60,0.00,,,0.00,Wunderground v.1.15,2013-04-27 06:28:00,
2013-04-27 02:33:00,61.9,48.3,30.27,South,175,5.0,6.0,61,0.00,,,0.00,Wunderground v.1.15,2013-04-27 06:33:00,
2013-04-27 02:38:00,61.9,48.3,30.27,South,181,3.0,6.0,61,0.00,,,0.00,Wunderground v.1.15,2013-04-27 06:38:00,
2013-04-27 02:43:00,61.8,48.2,30.27,South,182,3.0,5.0,61,0.00,,,0.00,Wunderground v.1.15,2013-04-27 06:43:00,
2013-04-27 02:48:00,61.7,48.1,30.27,South,170,2.0,5.0,61,0.00,,,0.00,Wunderground v.1.15,2013-04-27 06:48:00,
2013-04-27 02:53:00,61.6,48.0,30.28,South,171,4.0,4.0,61,0.00,,,0.00,Wunderground v.1.15,2013-04-27 06:53:00,
2013-04-27 02:58:00,61.6,48.0,30.28,South,171,0.0,6.0,61,0.00,,,0.00,Wunderground v.1.15,2013-04-27 06:58:00,
2013-04-27 03:03:00,61.6,48.4,30.28,South,171,0.0,1.0,62,0.00,,,0.00,Wunderground v.1.15,2013-04-27 07:03:00,
2013-04-27 03:08:00,61.5,49.6,30.28,South,171,0.0,1.0,65,0.00,,,0.00,Wunderground v.1.15,2013-04-27 07:08:00,
2013-04-27 03:13:00,61.1,49.7,30.29,SSE,167,0.0,0.0,66,0.00,,,0.00,Wunderground v.1.15,2013-04-27 07:13:00,
2013-04-27 03:18:00,60.4,49.0,30.30,NE,36,6.0,6.0,66,0.00,,,0.00,Wunderground v.1.15,2013-04-27 07:18:00,
2013-04-27 03:23:00,60.0,49.0,30.30,NE,45,5.0,6.0,67,0.00,,,0.00,Wunderground v.1.15,2013-04-27 07:23:00,
2013-04-27 03:28:00,59.5,49.3,30.31,NE,42,4.0,7.0,69,0.00,,,0.00,Wunderground v.1.15,2013-04-27 07:28:00,
2013-04-27 03:33:00,59.1,49.3,30.31,NE,42,2.0,4.0,70,0.00,,,0.00,Wunderground v.1.15,2013-04-27 07:33:00,
2013-04-27 03:38:00,58.9,49.5,30.30,NE,42,0.0,4.0,71,0.00,,,0.00,Wunderground v.1.15,2013-04-27 07:38:00,
2013-04-27 03:43:00,58.8,49.4,30.30,NE,42,0.0,1.0,71,0.00,,,0.00,Wunderground v.1.15,2013-04-27 07:43:00,
2013-04-27 03:49:00,58.6,49.6,30.31,NE,42,0.0,1.0,72,0.00,,,0.00,Wunderground v.1.15,2013-04-27 07:49:00,
2013-04-27 03:54:00,58.7,49.3,30.31,NE,42,0.0,1.0,71,0.00,,,0.00,Wunderground v.1.15,2013-04-27 07:54:00,
2013-04-27 03:59:00,58.7,49.7,30.30,NE,42,0.0,2.0,72,0.00,,,0.00,Wunderground v.1.15,2013-04-27 07:59:00,
2013-04-27 04:04:00,58.7,50.1,30.28,East,92,0.0,4.0,73,0.00,,,0.00,Wunderground v.1.15,2013-04-27 08:04:00,
2013-04-27 04:09:00,58.5,51.0,30.28,ENE,78,1.0,6.0,76,0.00,,,0.00,Wunderground v.1.15,2013-04-27 08:09:00,
2013-04-27 04:14:00,57.7,51.2,30.29,NE,46,3.0,3.0,79,0.00,,,0.00,Wunderground v.1.15,2013-04-27 08:14:00,
2013-04-27 04:19:00,57.0,51.6,30.30,NE,41,1.0,3.0,82,0.00,,,0.00,Wunderground v.1.15,2013-04-27 08:19:00,
2013-04-27 04:24:00,56.2,51.4,30.30,NE,40,4.0,5.0,84,0.00,,,0.00,Wunderground v.1.15,2013-04-27 08:24:00,
2013-04-27 04:29:00,55.6,51.5,30.31,NE,42,2.0,5.0,86,0.00,,,0.00,Wunderground v.1.15,2013-04-27 08:29:00,
2013-04-27 04:34:00,55.1,51.3,30.32,NE,42,1.0,3.0,87,0.00,,,0.00,Wunderground v.1.15,2013-04-27 08:34:00,
2013-04-27 04:39:00,54.9,51.4,30.33,WNW,288,0.0,5.0,88,0.00,,,0.00,Wunderground v.1.15,2013-04-27 08:39:00,
2013-04-27 04:44:00,54.5,51.3,30.33,WNW,288,0.0,2.0,89,0.00,,,0.01,Wunderground v.1.15,2013-04-27 08:44:00,
2013-04-27 04:49:00,54.4,51.2,30.33,WNW,288,0.0,2.0,89,0.00,,,0.01,Wunderground v.1.15,2013-04-27 08:49:00,
2013-04-27 04:54:00,54.2,51.3,30.33,WNW,288,0.0,0.0,90,0.06,,,0.01,Wunderground v.1.15,2013-04-27 08:54:00,
2013-04-27 04:59:00,54.2,51.6,30.33,WNW,288,0.0,0.0,91,0.19,,,0.04,Wunderground v.1.15,2013-04-27 08:59:00,
2013-04-27 05:04:00,54.1,51.5,30.31,WNW,288,0.0,0.0,91,0.19,,,0.05,Wunderground v.1.15,2013-04-27 09:04:00,
2013-04-27 05:09:00,53.9,51.3,30.32,WNW,288,0.0,0.0,91,0.10,,,0.06,Wunderground v.1.15,2013-04-27 09:09:00,
2013-04-27 05:14:00,53.7,50.8,30.31,WNW,288,0.0,0.0,90,0.16,,,0.07,Wunderground v.1.15,2013-04-27 09:14:00,
2013-04-27 05:20:00,53.5,51.2,30.29,WNW,288,0.0,0.0,92,0.16,,,0.08,Wunderground v.1.15,2013-04-27 09:20:00,
2013-04-27 05:25:00,53.4,50.8,30.28,WNW,288,0.0,0.0,91,0.22,,,0.10,Wunderground v.1.15,2013-04-27 09:25:00,
2013-04-27 05:30:00,53.1,50.2,30.29,WNW,288,0.0,4.0,90,0.16,,,0.11,Wunderground v.1.15,2013-04-27 09:30:00,
2013-04-27 05:35:00,52.8,49.3,30.29,WNW,288,0.0,0.0,88,0.09,,,0.12,Wunderground v.1.15,2013-04-27 09:35:00,
2013-04-27 05:40:00,52.5,48.7,30.29,WNW,288,0.0,0.0,87,0.08,,,0.12,Wunderground v.1.15,2013-04-27 09:40:00,
2013-04-27 05:45:00,52.3,49.2,30.29,WNW,288,0.0,0.0,89,0.06,,,0.13,Wunderground v.1.15,2013-04-27 09:45:00,
2013-04-27 05:50:00,52.1,49.3,30.30,WNW,288,0.0,0.0,90,0.14,,,0.14,Wunderground v.1.15,2013-04-27 09:50:00,
2013-04-27 05:55:00,51.9,48.8,30.30,WNW,288,0.0,0.0,89,0.10,,,0.15,Wunderground v.1.15,2013-04-27 09:55:00,
2013-04-27 06:00:00,51.8,49.3,30.29,WNW,288,0.0,0.0,91,0.07,,,0.15,Wunderground v.1.15,2013-04-27 10:00:00,
2013-04-27 06:05:00,51.9,49.4,30.28,West,281,0.0,4.0,91,0.05,,,0.16,Wunderground v.1.15,2013-04-27 10:05:00,
2013-04-27 06:10:00,51.8,49.3,30.28,SE,145,4.0,5.0,91,0.05,,,0.16,Wunderground v.1.15,2013-04-27 10:10:00,
2013-04-27 06:15:00,51.7,48.9,30.28,South,175,0.0,1.0,90,0.05,,,0.16,Wunderground v.1.15,2013-04-27 10:15:00,
2013-04-27 06:20:00,51.6,48.8,30.28,South,175,0.0,1.0,90,0.04,,,0.16,Wunderground v.1.15,2013-04-27 10:20:00,
2013-04-27 06:25:00,51.5,48.7,30.29,South,171,0.0,0.0,90,0.00,,,0.16,Wunderground v.1.15,2013-04-27 10:25:00,
2013-04-27 06:30:00,51.4,48.6,30.28,SE,140,0.0,0.0,90,0.00,,,0.16,Wunderground v.1.15,2013-04-27 10:30:00,
2013-04-27 06:35:00,51.4,48.9,30.29,SE,140,0.0,0.0,91,0.00,,,0.16,Wunderground v.1.15,2013-04-27 10:35:00,
2013-04-27 06:40:00,51.3,48.8,30.29,SE,140,0.0,0.0,91,0.00,,,0.16,Wunderground v.1.15,2013-04-27 10:40:00,
2013-04-27 06:45:00,51.2,48.7,30.30,NNW,328,0.0,0.0,91,0.00,,,0.16,Wunderground v.1.15,2013-04-27 10:45:00,
2013-04-27 06:50:00,51.2,48.7,30.31,NNW,328,0.0,0.0,91,0.00,,,0.16,Wunderground v.1.15,2013-04-27 10:50:00,
2013-04-27 06:55:00,51.2,48.7,30.31,NNW,329,0.0,0.0,91,0.00,,,0.17,Wunderground v.1.15,2013-04-27 10:55:00,
2013-04-27 07:00:00,51.2,49.0,30.30,NNW,329,0.0,0.0,92,0.00,,,0.17,Wunderground v.1.15,2013-04-27 11:00:00,
2013-04-27 07:05:00,51.3,49.1,30.30,NNW,329,0.0,0.0,92,0.00,,,0.17,Wunderground v.1.15,2013-04-27 11:05:00,
2013-04-27 07:10:00,51.3,49.1,30.29,NNW,329,0.0,0.0,92,0.04,,,0.18,Wunderground v.1.15,2013-04-27 11:10:00,
2013-04-27 07:15:00,51.3,49.1,30.30,NNW,329,0.0,0.0,92,0.15,,,0.19,Wunderground v.1.15,2013-04-27 11:15:00,
2013-04-27 07:20:00,51.3,49.3,30.31,NNW,329,0.0,4.0,93,0.15,,,0.20,Wunderground v.1.15,2013-04-27 11:20:00,
2013-04-27 07:25:00,51.3,49.3,30.32,NNW,329,0.0,0.0,93,0.07,,,0.20,Wunderground v.1.15,2013-04-27 11:25:00,
2013-04-27 07:30:00,51.3,49.3,30.31,NNW,329,0.0,0.0,93,0.04,,,0.20,Wunderground v.1.15,2013-04-27 11:30:00,
2013-04-27 07:35:00,51.3,49.3,30.31,NNW,331,0.0,0.0,93,0.00,,,0.20,Wunderground v.1.15,2013-04-27 11:35:00,
2013-04-27 07:40:00,51.4,49.4,30.32,NNW,330,0.0,0.0,93,0.00,,,0.20,Wunderground v.1.15,2013-04-27 11:40:00,
2013-04-27 07:45:00,51.5,49.8,30.33,NNW,331,0.0,0.0,94,0.00,,,0.20,Wunderground v.1.15,2013-04-27 11:45:00,
2013-04-27 07:50:00,51.5,49.5,30.33,NNW,331,0.0,0.0,93,0.00,,,0.20,Wunderground v.1.15,2013-04-27 11:50:00,
2013-04-27 07:55:00,51.5,49.5,30.32,NNW,331,0.0,0.0,93,0.00,,,0.20,Wunderground v.1.15,2013-04-27 11:55:00,
2013-04-27 08:00:00,51.7,50.0,30.32,WSW,239,3.0,4.0,94,0.00,,,0.20,Wunderground v.1.15,2013-04-27 12:00:00,
2013-04-27 08:05:00,52.0,50.0,30.29,South,178,6.0,7.0,93,0.00,,,0.20,Wunderground v.1.15,2013-04-27 12:05:00,
2013-04-27 08:10:00,52.1,50.1,30.30,South,177,0.0,7.0,93,0.00,,,0.20,Wunderground v.1.15,2013-04-27 12:10:00,
2013-04-27 08:16:00,52.0,49.7,30.29,South,177,0.0,2.0,92,0.00,,,0.20,Wunderground v.1.15,2013-04-27 12:16:00,
2013-04-27 08:21:00,52.0,50.0,30.29,SSE,168,0.0,2.0,93,0.00,,,0.21,Wunderground v.1.15,2013-04-27 12:21:00,
2013-04-27 08:26:00,52.0,50.0,30.30,ESE,108,0.0,0.0,93,0.00,,,0.21,Wunderground v.1.15,2013-04-27 12:26:00,
2013-04-27 08:31:00,52.0,50.0,30.30,ESE,115,0.0,0.0,93,0.00,,,0.21,Wunderground v.1.15,2013-04-27 12:31:00,
2013-04-27 08:36:00,52.2,50.2,30.29,SE,128,0.0,0.0,93,0.00,,,0.21,Wunderground v.1.15,2013-04-27 12:36:00,
2013-04-27 08:41:00,52.3,50.3,30.29,SE,128,0.0,0.0,93,0.00,,,0.21,Wunderground v.1.15,2013-04-27 12:41:00,
2013-04-27 08:46:00,52.4,50.4,30.28,South,173,5.0,6.0,93,0.00,,,0.21,Wunderground v.1.15,2013-04-27 12:46:00,
2013-04-27 08:51:00,52.6,50.3,30.28,South,173,0.0,6.0,92,0.00,,,0.21,Wunderground v.1.15,2013-04-27 12:51:00,
2013-04-27 08:56:00,52.8,50.5,30.28,South,173,0.0,3.0,92,0.00,,,0.21,Wunderground v.1.15,2013-04-27 12:56:00,
2013-04-27 09:01:00,53.0,50.7,30.27,South,173,0.0,3.0,92,0.00,,,0.21,Wunderground v.1.15,2013-04-27 13:01:00,
2013-04-27 09:06:00,53.1,50.8,30.28,South,173,0.0,0.0,92,0.00,,,0.21,Wunderground v.1.15,2013-04-27 13:06:00,
2013-04-27 09:11:00,53.1,50.8,30.28,South,173,0.0,0.0,92,0.00,,,0.21,Wunderground v.1.15,2013-04-27 13:11:00,
2013-04-27 09:16:00,53.2,51.2,30.29,South,173,0.0,4.0,93,0.00,,,0.21,Wunderground v.1.15,2013-04-27 13:16:00,
2013-04-27 09:21:00,53.3,51.0,30.28,South,173,0.0,4.0,92,0.00,,,0.21,Wunderground v.1.15,2013-04-27 13:21:00,
2013-04-27 09:26:00,53.4,51.1,30.29,South,173,0.0,0.0,92,0.00,,,0.21,Wunderground v.1.15,2013-04-27 13:26:00,
2013-04-27 09:31:00,53.5,51.2,30.30,South,171,0.0,0.0,92,0.00,,,0.21,Wunderground v.1.15,2013-04-27 13:31:00,
2013-04-27 09:36:00,53.7,51.7,30.30,South,171,0.0,0.0,93,0.00,,,0.21,Wunderground v.1.15,2013-04-27 13:36:00,
2013-04-27 09:41:00,53.9,51.9,30.31,SSE,167,0.0,0.0,93,0.00,,,0.21,Wunderground v.1.15,2013-04-27 13:41:00,
2013-04-27 09:48:00,54.1,52.4,30.31,ESE,121,0.0,0.0,94,0.00,,,0.21,Wunderground v.1.15,2013-04-27 13:48:00,
2013-04-27 09:53:00,54.2,52.5,30.30,SSE,152,0.0,0.0,94,0.00,,,0.21,Wunderground v.1.15,2013-04-27 13:53:00,
2013-04-27 09:58:00,54.2,52.5,30.30,SSE,151,0.0,0.0,94,0.00,,,0.21,Wunderground v.1.15,2013-04-27 13:58:00,
2013-04-27 10:03:00,54.2,52.5,30.29,East,88,0.0,0.0,94,0.00,,,0.21,Wunderground v.1.15,2013-04-27 14:03:00,
2013-04-27 10:08:00,54.4,52.7,30.29,ESE,104,0.0,0.0,94,0.00,,,0.21,Wunderground v.1.15,2013-04-27 14:08:00,
2013-04-27 10:13:00,54.7,53.3,30.30,ESE,103,0.0,0.0,95,0.00,,,0.21,Wunderground v.1.15,2013-04-27 14:13:00,
2013-04-27 10:19:00,54.9,53.5,30.30,ESE,103,0.0,0.0,95,0.00,,,0.21,Wunderground v.1.15,2013-04-27 14:19:00,
2013-04-27 10:24:00,55.1,53.7,30.29,SE,125,0.0,0.0,95,0.00,,,0.21,Wunderground v.1.15,2013-04-27 14:24:00,
2013-04-27 10:29:00,55.5,53.8,30.30,East,98,0.0,0.0,94,0.00,,,0.21,Wunderground v.1.15,2013-04-27 14:29:00,
2013-04-27 10:34:00,55.6,53.9,30.30,East,98,0.0,0.0,94,0.00,,,0.21,Wunderground v.1.15,2013-04-27 14:34:00,
2013-04-27 10:39:00,55.6,53.6,30.29,East,98,0.0,0.0,93,0.00,,,0.21,Wunderground v.1.15,2013-04-27 14:39:00,
2013-04-27 10:44:00,55.8,53.8,30.29,East,98,0.0,0.0,93,0.00,,,0.21,Wunderground v.1.15,2013-04-27 14:44:00,
2013-04-27 10:49:00,56.1,54.4,30.29,East,98,0.0,0.0,94,0.00,,,0.21,Wunderground v.1.15,2013-04-27 14:49:00,
2013-04-27 10:54:00,56.5,54.8,30.29,East,98,0.0,0.0,94,0.00,,,0.21,Wunderground v.1.15,2013-04-27 14:54:00,
2013-04-27 10:59:00,57.0,55.3,30.30,SSE,163,0.0,0.0,94,0.00,,,0.21,Wunderground v.1.15,2013-04-27 14:59:00,
2013-04-27 11:04:00,57.2,55.2,30.30,SSE,163,0.0,0.0,93,0.00,,,0.21,Wunderground v.1.15,2013-04-27 15:04:00,
2013-04-27 11:09:00,57.6,55.9,30.30,SSE,163,0.0,0.0,94,0.00,,,0.21,Wunderground v.1.15,2013-04-27 15:09:00,
2013-04-27 11:14:00,57.8,55.8,30.30,SE,134,0.0,0.0,93,0.00,,,0.21,Wunderground v.1.15,2013-04-27 15:14:00,
2013-04-27 11:19:00,58.2,56.2,30.31,ESE,108,0.0,1.0,93,0.00,,,0.21,Wunderground v.1.15,2013-04-27 15:19:00,
2013-04-27 11:24:00,58.3,56.0,30.31,ESE,108,0.0,0.0,92,0.00,,,0.21,Wunderground v.1.15,2013-04-27 15:24:00,
2013-04-27 11:29:00,58.4,55.8,30.30,ESE,108,0.0,0.0,91,0.00,,,0.21,Wunderground v.1.15,2013-04-27 15:29:00,
2013-04-27 11:34:00,58.5,56.2,30.29,ESE,115,0.0,0.0,92,0.00,,,0.21,Wunderground v.1.15,2013-04-27 15:34:00,
2013-04-27 11:39:00,58.7,56.4,30.30,ESE,121,0.0,0.0,92,0.00,,,0.21,Wunderground v.1.15,2013-04-27 15:39:00,
2013-04-27 11:44:00,59.0,56.7,30.30,ESE,118,0.0,0.0,92,0.00,,,0.21,Wunderground v.1.15,2013-04-27 15:44:00,
2013-04-27 11:49:00,59.3,56.7,30.30,ESE,117,0.0,0.0,91,0.00,,,0.21,Wunderground v.1.15,2013-04-27 15:49:00,
2013-04-27 11:55:00,59.5,56.6,30.29,ESE,115,0.0,0.0,90,0.00,,,0.21,Wunderground v.1.15,2013-04-27 15:55:00,
2013-04-27 12:00:00,59.7,56.8,30.30,ESE,115,0.0,0.0,90,0.00,,,0.21,Wunderground v.1.15,2013-04-27 16:00:00,
2013-04-27 12:05:00,59.8,56.6,30.29,East,95,0.0,0.0,89,0.00,,,0.21,Wunderground v.1.15,2013-04-27 16:05:00,
2013-04-27 12:10:00,59.9,56.3,30.30,North,5,0.0,0.0,88,0.00,,,0.21,Wunderground v.1.15,2013-04-27 16:10:00,
2013-04-27 12:15:00,59.9,56.3,30.29,NNE,29,0.0,0.0,88,0.00,,,0.21,Wunderground v.1.15,2013-04-27 16:15:00,
2013-04-27 12:20:00,59.9,56.3,30.29,East,83,0.0,3.0,88,0.00,,,0.21,Wunderground v.1.15,2013-04-27 16:20:00,
2013-04-27 12:25:00,59.9,56.3,30.29,SSE,160,0.0,0.0,88,0.00,,,0.22,Wunderground v.1.15,2013-04-27 16:25:00,
2013-04-27 12:30:00,59.9,56.3,30.28,NE,50,0.0,2.0,88,0.00,,,0.22,Wunderground v.1.15,2013-04-27 16:30:00,
2013-04-27 12:35:00,60.0,56.7,30.28,NE,50,0.0,0.0,89,0.00,,,0.22,Wunderground v.1.15,2013-04-27 16:35:00,
2013-04-27 12:40:00,60.4,57.1,30.27,NE,50,0.0,0.0,89,0.00,,,0.22,Wunderground v.1.15,2013-04-27 16:40:00,
2013-04-27 12:45:00,61.0,57.4,30.28,NE,50,0.0,0.0,88,0.00,,,0.22,Wunderground v.1.15,2013-04-27 16:45:00,
2013-04-27 12:50:00,61.8,58.5,30.28,SE,127,0.0,4.0,89,0.00,,,0.22,Wunderground v.1.15,2013-04-27 16:50:00,
2013-04-27 12:55:00,62.4,58.5,30.28,ENE,76,0.0,0.0,87,0.00,,,0.22,Wunderground v.1.15,2013-04-27 16:55:00,
2013-04-27 13:00:00,63.0,57.1,30.28,ENE,66,1.0,4.0,81,0.00,,,0.22,Wunderground v.1.15,2013-04-27 17:00:00,
2013-04-27 13:05:00,63.4,57.1,30.28,ENE,66,3.0,4.0,80,0.00,,,0.22,Wunderground v.1.15,2013-04-27 17:05:00,
2013-04-27 13:10:00,63.5,57.2,30.28,ENE,69,4.0,6.0,80,0.00,,,0.22,Wunderground v.1.15,2013-04-27 17:10:00,
2013-04-27 13:15:00,63.8,57.5,30.27,South,181,0.0,2.0,80,0.00,,,0.22,Wunderground v.1.15,2013-04-27 17:15:00,
2013-04-27 13:20:00,64.4,57.7,30.28,East,86,3.0,4.0,79,0.00,,,0.22,Wunderground v.1.15,2013-04-27 17:20:00,
2013-04-27 13:25:00,64.7,57.3,30.28,ENE,74,3.0,3.0,77,0.00,,,0.22,Wunderground v.1.15,2013-04-27 17:25:00,
2013-04-27 13:30:00,64.9,56.8,30.28,ENE,75,1.0,4.0,75,0.00,,,0.22,Wunderground v.1.15,2013-04-27 17:30:00,
2013-04-27 13:35:00,65.0,56.5,30.28,SSE,148,2.0,4.0,74,0.00,,,0.22,Wunderground v.1.15,2013-04-27 17:35:00,
2013-04-27 13:40:00,65.3,57.2,30.27,ENE,74,2.0,4.0,75,0.00,,,0.22,Wunderground v.1.15,2013-04-27 17:40:00,
2013-04-27 13:45:00,65.2,56.3,30.28,ENE,74,0.0,3.0,73,0.00,,,0.22,Wunderground v.1.15,2013-04-27 17:45:00,
2013-04-27 13:50:00,65.5,55.8,30.27,NNE,27,0.0,3.0,71,0.00,,,0.22,Wunderground v.1.15,2013-04-27 17:50:00,
2013-04-27 13:56:00,65.9,57.0,30.28,ENE,73,0.0,5.0,73,0.00,,,0.22,Wunderground v.1.15,2013-04-27 17:56:00,
2013-04-27 14:01:00,66.2,56.9,30.27,NE,54,3.0,5.0,72,0.00,,,0.22,Wunderground v.1.15,2013-04-27 18:01:00,
2013-04-27 14:06:00,66.0,57.8,30.27,NE,55,0.0,4.0,75,0.00,,,0.22,Wunderground v.1.15,2013-04-27 18:06:00,
2013-04-27 14:11:00,66.0,57.1,30.27,ENE,61,3.0,4.0,73,0.00,,,0.22,Wunderground v.1.15,2013-04-27 18:11:00,
2013-04-27 14:16:00,65.8,56.9,30.27,ENE,63,0.0,4.0,73,0.00,,,0.22,Wunderground v.1.15,2013-04-27 18:16:00,
2013-04-27 14:21:00,65.7,56.4,30.27,ENE,78,3.0,7.0,72,0.00,,,0.22,Wunderground v.1.15,2013-04-27 18:21:00,
2013-04-27 14:26:00,65.9,57.4,30.27,ENE,58,2.0,4.0,74,0.00,,,0.22,Wunderground v.1.15,2013-04-27 18:26:00,
2013-04-27 14:31:00,66.2,58.0,30.27,East,98,0.0,4.0,75,0.00,,,0.22,Wunderground v.1.15,2013-04-27 18:31:00,
2013-04-27 14:36:00,66.8,58.2,30.27,NE,50,3.0,5.0,74,0.00,,,0.22,Wunderground v.1.15,2013-04-27 18:36:00,
2013-04-27 14:41:00,66.9,57.6,30.27,ENE,73,3.0,7.0,72,0.00,,,0.22,Wunderground v.1.15,2013-04-27 18:41:00,
2013-04-27 14:46:00,66.9,58.3,30.26,ENE,75,2.0,3.0,74,0.00,,,0.22,Wunderground v.1.15,2013-04-27 18:46:00,
2013-04-27 14:51:00,66.8,58.2,30.27,ENE,69,4.0,5.0,74,0.00,,,0.22,Wunderground v.1.15,2013-04-27 18:51:00,
2013-04-27 14:56:00,66.4,56.7,30.27,ENE,69,3.0,5.0,71,0.00,,,0.22,Wunderground v.1.15,2013-04-27 18:56:00,
2013-04-27 15:01:00,66.1,57.2,30.26,NE,49,3.0,5.0,73,0.00,,,0.22,Wunderground v.1.15,2013-04-27 19:01:00,
2013-04-27 15:06:00,65.8,56.9,30.26,East,82,2.0,6.0,73,0.00,,,0.22,Wunderground v.1.15,2013-04-27 19:06:00,
2013-04-27 15:11:00,65.7,56.8,30.26,ENE,78,4.0,6.0,73,0.00,,,0.22,Wunderground v.1.15,2013-04-27 19:11:00,
2013-04-27 15:16:00,65.5,57.0,30.25,East,92,1.0,6.0,74,0.00,,,0.22,Wunderground v.1.15,2013-04-27 19:16:00,
2013-04-27 15:21:00,65.6,57.5,30.25,ENE,78,3.0,6.0,75,0.00,,,0.22,Wunderground v.1.15,2013-04-27 19:21:00,
2013-04-27 15:26:00,65.7,57.9,30.25,ENE,73,4.0,8.0,76,0.00,,,0.22,Wunderground v.1.15,2013-04-27 19:26:00,
2013-04-27 15:31:00,65.5,58.1,30.25,NE,36,2.0,8.0,77,0.00,,,0.22,Wunderground v.1.15,2013-04-27 19:31:00,
2013-04-27 15:36:00,65.4,58.4,30.25,NE,49,2.0,5.0,78,0.00,,,0.22,Wunderground v.1.15,2013-04-27 19:36:00,
2013-04-27 15:41:00,65.3,58.6,30.25,ENE,67,4.0,7.0,79,0.00,,,0.22,Wunderground v.1.15,2013-04-27 19:41:00,
2013-04-27 15:46:00,65.0,58.3,30.25,ENE,65,2.0,6.0,79,0.00,,,0.22,Wunderground v.1.15,2013-04-27 19:46:00,
2013-04-27 15:51:00,64.8,58.8,30.24,ENE,57,5.0,8.0,81,0.00,,,0.22,Wunderground v.1.15,2013-04-27 19:51:00,
2013-04-27 15:56:00,64.7,58.7,30.24,ENE,65,1.0,4.0,81,0.00,,,0.22,Wunderground v.1.15,2013-04-27 19:56:00,
2013-04-27 16:01:00,64.7,59.1,30.24,ENE,60,3.0,4.0,82,0.00,,,0.22,Wunderground v.1.15,2013-04-27 20:01:00,
2013-04-27 16:06:00,64.5,58.5,30.24,NE,39,4.0,6.0,81,0.00,,,0.22,Wunderground v.1.15,2013-04-27 20:06:00,
2013-04-27 16:11:00,64.3,58.7,30.24,ENE,61,2.0,6.0,82,0.00,,,0.22,Wunderground v.1.15,2013-04-27 20:11:00,
2013-04-27 16:16:00,64.2,58.6,30.24,ENE,67,3.0,5.0,82,0.00,,,0.22,Wunderground v.1.15,2013-04-27 20:16:00,
2013-04-27 16:21:00,64.0,58.4,30.24,NNE,27,8.0,8.0,82,0.00,,,0.22,Wunderground v.1.15,2013-04-27 20:21:00,
2013-04-27 16:26:00,64.0,58.7,30.24,NE,55,3.0,4.0,83,0.00,,,0.22,Wunderground v.1.15,2013-04-27 20:26:00,
2013-04-27 16:31:00,63.9,58.6,30.24,ENE,64,2.0,5.0,83,0.00,,,0.22,Wunderground v.1.15,2013-04-27 20:31:00,
2013-04-27 16:36:00,63.9,58.3,30.23,ENE,66,3.0,6.0,82,0.00,,,0.22,Wunderground v.1.15,2013-04-27 20:36:00,
2013-04-27 16:41:00,64.0,58.4,30.23,ENE,74,0.0,6.0,82,0.00,,,0.22,Wunderground v.1.15,2013-04-27 20:41:00,
2013-04-27 16:46:00,64.1,58.5,30.23,NE,49,2.0,4.0,82,0.00,,,0.22,Wunderground v.1.15,2013-04-27 20:46:00,
2013-04-27 16:51:00,64.2,58.6,30.23,ENE,61,0.0,6.0,82,0.00,,,0.22,Wunderground v.1.15,2013-04-27 20:51:00,
2013-04-27 16:56:00,64.3,58.7,30.23,East,98,0.0,4.0,82,0.00,,,0.22,Wunderground v.1.15,2013-04-27 20:56:00,
2013-04-27 17:01:00,64.5,58.2,30.22,ENE,75,0.0,4.0,80,0.00,,,0.22,Wunderground v.1.15,2013-04-27 21:01:00,
2013-04-27 17:06:00,64.7,58.4,30.22,NE,44,2.0,6.0,80,0.00,,,0.22,Wunderground v.1.15,2013-04-27 21:06:00,
2013-04-27 17:11:00,64.6,57.6,30.23,ENE,72,4.0,6.0,78,0.00,,,0.22,Wunderground v.1.15,2013-04-27 21:11:00,
2013-04-27 17:16:00,64.5,57.8,30.22,ENE,65,4.0,6.0,79,0.00,,,0.22,Wunderground v.1.15,2013-04-27 21:16:00,
2013-04-27 17:21:00,64.4,57.7,30.22,ENE,71,5.0,7.0,79,0.00,,,0.22,Wunderground v.1.15,2013-04-27 21:21:00,
2013-04-27 17:27:00,64.2,57.9,30.22,SW,226,0.0,7.0,80,0.00,,,0.22,Wunderground v.1.15,2013-04-27 21:27:00,
2013-04-27 17:32:00,64.5,57.8,30.22,ENE,78,0.0,7.0,79,0.00,,,0.22,Wunderground v.1.15,2013-04-27 21:32:00,
2013-04-27 17:37:00,64.8,57.8,30.22,NNE,29,0.0,4.0,78,0.00,,,0.22,Wunderground v.1.15,2013-04-27 21:37:00,
2013-04-27 17:42:00,64.7,57.7,30.22,ENE,65,5.0,5.0,78,0.00,,,0.22,Wunderground v.1.15,2013-04-27 21:42:00,
2013-04-27 17:47:00,64.5,57.5,30.22,ENE,78,0.0,4.0,78,0.00,,,0.22,Wunderground v.1.15,2013-04-27 21:47:00,
2013-04-27 17:52:00,64.5,57.5,30.22,East,80,0.0,4.0,78,0.00,,,0.22,Wunderground v.1.15,2013-04-27 21:52:00,
2013-04-27 17:57:00,64.2,56.5,30.23,ENE,74,0.0,5.0,76,0.00,,,0.22,Wunderground v.1.15,2013-04-27 21:57:00,
2013-04-27 18:02:00,64.0,56.3,30.23,East,84,1.0,5.0,76,0.00,,,0.22,Wunderground v.1.15,2013-04-27 22:02:00,
2013-04-27 18:07:00,64.0,55.9,30.23,East,82,1.0,5.0,75,0.00,,,0.22,Wunderground v.1.15,2013-04-27 22:07:00,
2013-04-27 18:12:00,63.9,55.8,30.22,East,83,2.0,7.0,75,0.00,,,0.22,Wunderground v.1.15,2013-04-27 22:12:00,
2013-04-27 18:17:00,63.8,56.1,30.22,East,96,2.0,3.0,76,0.00,,,0.22,Wunderground v.1.15,2013-04-27 22:17:00,
2013-04-27 18:22:00,63.8,55.7,30.23,ENE,76,6.0,6.0,75,0.00,,,0.22,Wunderground v.1.15,2013-04-27 22:22:00,
2013-04-27 18:27:00,63.8,56.1,30.22,ENE,74,0.0,5.0,76,0.00,,,0.22,Wunderground v.1.15,2013-04-27 22:27:00,
2013-04-27 18:32:00,64.0,56.3,30.22,ENE,72,4.0,6.0,76,0.00,,,0.22,Wunderground v.1.15,2013-04-27 22:32:00,
2013-04-27 18:37:00,64.4,56.3,30.22,ENE,78,2.0,4.0,75,0.00,,,0.22,Wunderground v.1.15,2013-04-27 22:37:00,
2013-04-27 18:42:00,64.4,56.3,30.21,ENE,67,2.0,4.0,75,0.00,,,0.22,Wunderground v.1.15,2013-04-27 22:42:00,
2013-04-27 18:47:00,64.4,56.3,30.21,East,86,0.0,2.0,75,0.00,,,0.22,Wunderground v.1.15,2013-04-27 22:47:00,
2013-04-27 18:52:00,64.4,56.3,30.20,ENE,76,0.0,4.0,75,0.00,,,0.22,Wunderground v.1.15,2013-04-27 22:52:00,
2013-04-27 18:57:00,64.1,56.0,30.20,East,82,0.0,5.0,75,0.00,,,0.22,Wunderground v.1.15,2013-04-27 22:57:00,
2013-04-27 19:02:00,63.9,55.4,30.20,ENE,73,0.0,5.0,74,0.00,,,0.22,Wunderground v.1.15,2013-04-27 23:02:00,
2013-04-27 19:07:00,63.6,55.2,30.20,ENE,70,0.0,2.0,74,0.00,,,0.22,Wunderground v.1.15,2013-04-27 23:07:00,
2013-04-27 19:12:00,63.3,55.2,30.20,East,81,0.0,2.0,75,0.00,,,0.22,Wunderground v.1.15,2013-04-27 23:12:00,
2013-04-27 19:17:00,63.1,55.4,30.20,East,80,0.0,0.0,76,0.00,,,0.22,Wunderground v.1.15,2013-04-27 23:17:00,
2013-04-27 19:22:00,62.9,55.2,30.20,ESE,113,0.0,0.0,76,0.00,,,0.22,Wunderground v.1.15,2013-04-27 23:22:00,
2013-04-27 19:27:00,62.8,55.5,30.20,ESE,121,0.0,0.0,77,0.00,,,0.22,Wunderground v.1.15,2013-04-27 23:27:00,
2013-04-27 19:32:00,62.6,55.6,30.20,SE,146,0.0,0.0,78,0.00,,,0.22,Wunderground v.1.15,2013-04-27 23:32:00,
2013-04-27 19:37:00,62.5,55.5,30.20,SSE,166,0.0,0.0,78,0.00,,,0.22,Wunderground v.1.15,2013-04-27 23:37:00,
2013-04-27 19:42:00,62.4,55.8,30.20,SSE,163,0.0,0.0,79,0.00,,,0.22,Wunderground v.1.15,2013-04-27 23:42:00,
2013-04-27 19:47:00,62.3,56.0,30.20,SSE,162,0.0,0.0,80,0.00,,,0.22,Wunderground v.1.15,2013-04-27 23:47:00,
2013-04-27 19:52:00,62.2,56.0,30.20,SSE,162,0.0,0.0,80,0.00,,,0.22,Wunderground v.1.15,2013-04-27 23:52:00,
2013-04-27 19:57:00,62.0,55.8,30.20,WNW,292,0.0,0.0,80,0.00,,,0.22,Wunderground v.1.15,2013-04-27 23:57:00,
2013-04-27 20:02:00,61.8,55.9,30.20,WNW,301,0.0,0.0,81,0.00,,,0.22,Wunderground v.1.15,2013-04-28 00:02:00,
2013-04-27 20:08:00,61.6,56.0,30.20,WNW,303,0.0,0.0,82,0.00,,,0.22,Wunderground v.1.15,2013-04-28 00:08:00,
2013-04-27 20:13:00,61.4,55.9,30.20,WNW,303,0.0,0.0,82,0.00,,,0.22,Wunderground v.1.15,2013-04-28 00:13:00,
2013-04-27 20:18:00,61.2,55.7,30.19,WNW,303,0.0,0.0,82,0.00,,,0.22,Wunderground v.1.15,2013-04-28 00:18:00,
2013-04-27 20:23:00,61.1,55.9,30.19,WNW,303,0.0,0.0,83,0.00,,,0.22,Wunderground v.1.15,2013-04-28 00:23:00,
2013-04-27 20:28:00,61.0,55.8,30.19,WNW,303,0.0,0.0,83,0.00,,,0.22,Wunderground v.1.15,2013-04-28 00:28:00,
2013-04-27 20:33:00,60.9,55.7,30.19,WNW,303,0.0,0.0,83,0.00,,,0.22,Wunderground v.1.15,2013-04-28 00:33:00,
2013-04-27 20:38:00,60.8,55.9,30.19,WNW,303,0.0,0.0,84,0.00,,,0.22,Wunderground v.1.15,2013-04-28 00:38:00,
2013-04-27 20:43:00,60.7,55.8,30.19,WNW,303,0.0,0.0,84,0.00,,,0.22,Wunderground v.1.15,2013-04-28 00:43:00,
2013-04-27 20:48:00,60.7,55.8,30.19,WNW,303,0.0,0.0,84,0.00,,,0.22,Wunderground v.1.15,2013-04-28 00:48:00,
2013-04-27 20:53:00,60.5,55.6,30.19,WNW,303,0.0,0.0,84,0.00,,,0.22,Wunderground v.1.15,2013-04-28 00:53:00,
2013-04-27 20:58:00,60.4,55.9,30.19,WNW,303,0.0,0.0,85,0.00,,,0.22,Wunderground v.1.15,2013-04-28 00:58:00,
2013-04-27 21:03:00,60.2,55.7,30.19,WNW,303,0.0,0.0,85,0.00,,,0.22,Wunderground v.1.15,2013-04-28 01:03:00,
2013-04-27 21:08:00,60.1,55.6,30.20,WNW,303,0.0,0.0,85,0.00,,,0.22,Wunderground v.1.15,2013-04-28 01:08:00,
2013-04-27 21:13:00,59.9,55.7,30.20,WNW,303,0.0,0.0,86,0.00,,,0.22,Wunderground v.1.15,2013-04-28 01:13:00,
2013-04-27 21:18:00,59.8,55.9,30.19,NW,304,0.0,0.0,87,0.00,,,0.22,Wunderground v.1.15,2013-04-28 01:18:00,
2013-04-27 21:23:00,59.8,55.9,30.19,NW,304,0.0,0.0,87,0.00,,,0.22,Wunderground v.1.15,2013-04-28 01:23:00,
2013-04-27 21:28:00,59.8,55.9,30.19,NW,304,0.0,0.0,87,0.00,,,0.22,Wunderground v.1.15,2013-04-28 01:28:00,
2013-04-27 21:33:00,59.7,55.8,30.19,WNW,303,0.0,0.0,87,0.00,,,0.22,Wunderground v.1.15,2013-04-28 01:33:00,
2013-04-27 21:38:00,59.7,55.8,30.19,NW,304,0.0,0.0,87,0.00,,,0.22,Wunderground v.1.15,2013-04-28 01:38:00,
2013-04-27 21:43:00,59.7,56.1,30.19,NW,304,0.0,0.0,88,0.00,,,0.22,Wunderground v.1.15,2013-04-28 01:43:00,
2013-04-27 21:49:00,59.8,56.2,30.19,WNW,303,0.0,0.0,88,0.00,,,0.22,Wunderground v.1.15,2013-04-28 01:49:00,
2013-04-27 21:54:00,59.8,55.9,30.18,WNW,303,0.0,0.0,87,0.00,,,0.22,Wunderground v.1.15,2013-04-28 01:54:00,
2013-04-27 21:59:00,59.8,56.2,30.18,SSE,162,0.0,4.0,88,0.00,,,0.22,Wunderground v.1.15,2013-04-28 01:59:00,
2013-04-27 22:04:00,59.8,56.2,30.18,SSE,163,0.0,0.0,88,0.00,,,0.22,Wunderground v.1.15,2013-04-28 02:04:00,
2013-04-27 22:09:00,59.7,56.1,30.19,SSE,163,0.0,0.0,88,0.00,,,0.22,Wunderground v.1.15,2013-04-28 02:09:00,
2013-04-27 22:14:00,59.7,56.1,30.18,SSE,163,0.0,0.0,88,0.00,,,0.22,Wunderground v.1.15,2013-04-28 02:14:00,
2013-04-27 22:19:00,59.7,56.1,30.18,SSE,163,0.0,0.0,88,0.00,,,0.22,Wunderground v.1.15,2013-04-28 02:19:00,
2013-04-27 22:24:00,59.6,55.7,30.18,SSE,163,0.0,0.0,87,0.00,,,0.22,Wunderground v.1.15,2013-04-28 02:24:00,
2013-04-27 22:29:00,59.5,55.6,30.17,SSE,163,0.0,0.0,87,0.00,,,0.22,Wunderground v.1.15,2013-04-28 02:29:00,
2013-04-27 22:34:00,59.5,55.6,30.18,SSE,163,0.0,0.0,87,0.00,,,0.22,Wunderground v.1.15,2013-04-28 02:34:00,
2013-04-27 22:39:00,59.4,55.8,30.17,SSE,163,0.0,0.0,88,0.00,,,0.22,Wunderground v.1.15,2013-04-28 02:39:00,
2013-04-27 22:44:00,59.2,55.6,30.18,SSE,163,0.0,0.0,88,0.00,,,0.22,Wunderground v.1.15,2013-04-28 02:44:00,
2013-04-27 22:49:00,59.1,55.5,30.18,SSE,163,0.0,0.0,88,0.00,,,0.22,Wunderground v.1.15,2013-04-28 02:49:00,
2013-04-27 22:54:00,59.1,55.5,30.18,SE,135,0.0,0.0,88,0.00,,,0.22,Wunderground v.1.15,2013-04-28 02:54:00,
2013-04-27 22:59:00,59.0,55.4,30.17,SE,135,0.0,0.0,88,0.00,,,0.22,Wunderground v.1.15,2013-04-28 02:59:00,
2013-04-27 23:04:00,59.1,55.2,30.17,SE,138,0.0,0.0,87,0.00,,,0.22,Wunderground v.1.15,2013-04-28 03:04:00,
2013-04-27 23:09:00,59.1,55.2,30.17,SE,138,0.0,0.0,87,0.00,,,0.22,Wunderground v.1.15,2013-04-28 03:09:00,
2013-04-27 23:14:00,59.1,55.2,30.18,SE,138,0.0,0.0,87,0.00,,,0.22,Wunderground v.1.15,2013-04-28 03:14:00,
2013-04-27 23:19:00,59.2,55.3,30.17,SE,138,0.0,0.0,87,0.00,,,0.22,Wunderground v.1.15,2013-04-28 03:19:00,
2013-04-27 23:24:00,59.3,55.4,30.17,South,178,0.0,0.0,87,0.00,,,0.22,Wunderground v.1.15,2013-04-28 03:24:00,
2013-04-27 23:29:00,59.3,55.1,30.17,ESE,105,0.0,5.0,86,0.00,,,0.22,Wunderground v.1.15,2013-04-28 03:29:00,
2013-04-27 23:34:00,59.3,55.1,30.17,ESE,105,0.0,0.0,86,0.00,,,0.22,Wunderground v.1.15,2013-04-28 03:34:00,
2013-04-27 23:39:00,59.2,55.0,30.17,SE,146,0.0,4.0,86,0.00,,,0.22,Wunderground v.1.15,2013-04-28 03:39:00,
2013-04-27 23:45:00,59.2,55.0,30.17,SSE,167,0.0,6.0,86,0.00,,,0.22,Wunderground v.1.15,2013-04-28 03:45:00,
2013-04-27 23:47:00,72.5,61.7,30.14,SW,215,6.0,9.0,69,0.00,,,0.00,Wunderground v.1.15,2013-04-28 03:47:00,
2013-04-27 23:48:00,72.5,61.7,30.14,SSW,211,5.0,9.0,69,0.00,,,0.00,Wunderground v.1.15,2013-04-28 03:48:00,
2013-04-27 23:49:00,72.5,61.7,30.14,SSW,195,7.0,9.0,69,0.00,,,0.00,Wunderground v.1.15,2013-04-28 03:49:00,
2013-04-27 23:50:00,59.2,55.0,30.17,SE,128,2.0,6.0,86,0.00,,,0.22,Wunderground v.1.15,2013-04-28 03:50:00,
2013-04-27 23:51:00,72.4,61.7,30.13,South,190,5.0,7.0,69,0.00,,,0.00,Wunderground v.1.15,2013-04-28 03:51:00,
2013-04-27 23:52:00,72.4,61.7,30.13,South,191,6.0,7.0,69,0.00,,,0.00,Wunderground v.1.15,2013-04-28 03:52:00,
2013-04-27 23:53:00,72.4,62.1,30.14,South,190,2.0,7.0,70,0.00,,,0.00,Wunderground v.1.15,2013-04-28 03:53:00,
2013-04-27 23:54:00,72.3,62.0,30.14,South,173,7.0,7.0,70,0.00,,,0.00,Wunderground v.1.15,2013-04-28 03:54:00,
2013-04-27 23:55:00,59.1,54.9,30.17,South,175,0.0,5.0,86,0.00,,,0.22,Wunderground v.1.15,2013-04-28 03:55:00,
2013-04-27 23:56:00,72.3,62.0,30.14,SSW,198,5.0,8.0,70,0.00,,,0.00,Wunderground v.1.15,2013-04-28 03:56:00,